createdAt,value
2019-05-30T00:00:12.532Z,9.93
2019-05-30T00:02:27.488Z,9.94
2019-05-30T00:04:54.318Z,10.02
2019-05-30T00:07:20.983Z,10.02
2019-05-30T00:09:47.797Z,10.00
2019-05-30T00:12:14.608Z,9.92
2019-05-30T00:14:41.314Z,9.78
2019-05-30T00:17:07.917Z,9.70
2019-05-30T00:19:34.702Z,9.64
2019-05-30T00:22:01.585Z,9.63
2019-05-30T00:24:30.081Z,9.65
2019-05-30T00:26:58.413Z,9.65
2019-05-30T00:29:25.371Z,9.65
2019-05-30T00:31:52.016Z,9.67
2019-05-30T00:34:19.489Z,9.70
2019-05-30T00:36:46.230Z,9.73
2019-05-30T00:39:12.996Z,9.76
2019-05-30T00:41:39.578Z,9.78
2019-05-30T00:44:06.405Z,9.74
2019-05-30T00:46:33.248Z,9.72
2019-05-30T09:17:39.319Z,19.88
2019-05-30T09:20:07.789Z,19.75
2019-05-30T09:22:35.016Z,19.58
2019-05-30T09:25:01.806Z,19.33
2019-05-30T09:27:28.920Z,19.37
2019-05-30T09:29:56.207Z,19.55
2019-05-30T09:32:23.055Z,19.82
2019-05-30T09:34:51.914Z,19.64
2019-05-30T09:37:18.615Z,19.20
2019-05-30T09:39:45.830Z,19.35
2019-05-30T09:42:12.620Z,19.56
2019-05-30T09:44:40.464Z,19.26
2019-05-30T09:47:07.749Z,19.18
2019-05-30T09:49:34.927Z,18.45
2019-05-30T09:52:01.712Z,18.54
2019-05-30T09:54:28.433Z,19.15
2019-05-30T09:56:57.363Z,19.20
2019-05-30T09:59:23.852Z,19.44
2019-05-30T10:01:50.623Z,19.67
2019-05-30T10:04:17.412Z,19.24
2019-05-30T10:06:44.670Z,19.23
2019-05-30T10:09:11.567Z,19.02
2019-05-30T10:11:38.372Z,18.96
2019-05-30T10:14:05.266Z,18.85
2019-05-30T10:16:32.090Z,18.94
2019-05-30T10:18:58.930Z,19.11
2019-05-30T10:21:25.599Z,19.10
2019-05-30T10:23:53.692Z,18.75
2019-05-30T10:26:20.508Z,18.44
2019-05-30T10:28:49.137Z,18.49
2019-05-30T10:31:16.414Z,18.58
2019-05-30T10:33:44.293Z,18.56
2019-05-30T10:36:14.712Z,18.54
2019-05-30T10:38:40.966Z,18.58
2019-05-30T10:41:07.942Z,18.52
2019-05-30T10:43:34.530Z,18.51
2019-05-30T10:46:04.142Z,18.34
2019-05-30T10:48:30.967Z,18.58
2019-05-30T10:51:01.153Z,18.32
2019-05-30T10:53:27.855Z,18.32
2019-05-30T10:55:54.953Z,18.45
2019-05-30T10:58:22.389Z,18.62
2019-05-30T11:00:55.563Z,18.29
2019-05-30T11:03:23.878Z,18.79
2019-05-30T11:06:01.762Z,18.86
2019-05-30T11:08:30.836Z,18.79
2019-05-30T11:10:57.501Z,18.93
2019-05-30T11:13:24.311Z,18.79
2019-05-30T11:15:53.424Z,19.43
2019-05-30T11:18:20.863Z,19.84
2019-05-30T11:21:07.194Z,19.53
2019-05-30T11:23:33.869Z,19.80
2019-05-30T11:26:00.674Z,20.12
2019-05-30T11:28:27.465Z,19.90
2019-05-30T11:30:54.813Z,19.49
2019-05-30T11:33:22.820Z,19.90
2019-05-30T11:35:49.490Z,20.22
2019-05-30T11:38:16.202Z,20.11
2019-05-30T11:40:42.896Z,19.99
2019-05-30T11:43:09.740Z,20.07
2019-05-30T11:45:36.555Z,19.82
2019-05-30T11:48:03.379Z,20.60
2019-05-30T11:50:30.414Z,21.12
2019-05-30T11:52:57.959Z,21.46
2019-05-30T11:55:24.889Z,19.89
2019-05-30T11:57:52.060Z,20.06
2019-05-30T12:00:19.334Z,20.20
2019-05-30T12:02:46.153Z,19.62
2019-05-30T12:05:13.486Z,19.64
2019-05-30T12:07:40.177Z,20.13
2019-05-30T12:10:07.050Z,20.02
2019-05-30T12:12:33.898Z,20.36
2019-05-30T12:15:01.662Z,19.84
2019-05-30T12:17:28.682Z,19.88
2019-05-30T12:19:56.029Z,19.85
2019-05-30T12:22:22.935Z,19.84
2019-05-30T12:24:49.655Z,20.26
2019-05-30T12:27:16.444Z,20.55
2019-05-30T12:29:43.127Z,19.72
2019-05-30T12:32:09.811Z,19.92
2019-05-30T12:34:38.737Z,19.92
2019-05-30T12:37:05.507Z,19.94
2019-05-30T12:39:32.205Z,19.95
2019-05-30T12:41:59.091Z,19.87
2019-05-30T12:44:25.946Z,20.02
2019-05-30T12:46:53.372Z,19.94
2019-05-30T12:49:20.366Z,19.46
2019-05-30T12:51:47.144Z,19.63
2019-05-30T12:54:13.823Z,19.65
2019-05-30T12:56:40.487Z,19.80
2019-05-30T12:59:07.286Z,19.86
2019-05-30T13:01:33.967Z,19.67
2019-05-30T13:04:01.118Z,19.69
2019-05-30T13:06:27.844Z,19.54
2019-05-30T13:08:55.042Z,20.00
2019-05-30T13:11:23.326Z,19.94
2019-05-30T13:13:50.133Z,19.71
2019-05-30T13:16:16.957Z,19.93
2019-05-30T13:18:43.957Z,20.03
2019-05-30T13:21:11.106Z,19.54
2019-05-30T13:23:37.892Z,19.43
2019-05-30T13:26:05.896Z,19.44
2019-05-30T13:28:32.799Z,19.26
2019-05-30T13:31:00.292Z,19.38
2019-05-30T13:33:27.013Z,19.19
2019-05-30T13:35:54.147Z,19.31
2019-05-30T13:38:26.334Z,19.22
2019-05-30T13:40:51.953Z,19.29
2019-05-30T13:43:18.624Z,19.26
2019-05-30T13:45:45.478Z,19.32
2019-05-30T13:48:12.238Z,19.31
2019-05-30T13:50:39.063Z,19.44
2019-05-30T13:53:07.329Z,19.08
2019-05-30T13:55:35.007Z,19.06
2019-05-30T13:58:02.087Z,18.88
2019-05-30T14:00:31.663Z,19.04
2019-05-30T14:02:58.424Z,19.12
2019-05-30T14:05:25.564Z,18.92
2019-05-30T14:07:52.323Z,18.78
2019-05-30T14:10:19.512Z,18.84
2019-05-30T14:12:46.287Z,19.01
2019-05-30T14:15:14.574Z,19.01
2019-05-30T14:17:41.482Z,19.08
2019-05-30T14:20:11.221Z,18.88
2019-05-30T14:22:38.432Z,18.85
2019-05-30T14:25:08.043Z,18.77
2019-05-30T14:27:34.811Z,18.77
2019-05-30T14:30:03.090Z,18.94
2019-05-30T14:32:29.916Z,18.97
2019-05-30T14:34:56.720Z,19.30
2019-05-30T14:37:26.513Z,18.94
2019-05-30T14:39:53.314Z,19.02
2019-05-30T14:42:20.196Z,18.75
2019-05-30T14:44:46.856Z,18.76
2019-05-30T14:47:13.559Z,18.86
2019-05-30T14:49:40.393Z,18.90
2019-05-30T14:52:08.847Z,19.08
2019-05-30T14:54:35.533Z,19.22
2019-05-30T14:59:42.934Z,19.16
2019-05-30T15:02:11.210Z,19.08
2019-05-30T15:04:38.200Z,19.39
2019-05-30T15:07:05.352Z,19.19
2019-05-30T15:09:32.857Z,19.33
2019-05-30T15:11:59.955Z,19.25
2019-05-30T15:14:26.633Z,19.19
2019-05-30T15:16:53.431Z,19.48
2019-05-30T15:19:20.223Z,19.56
2019-05-30T15:21:47.215Z,19.31
2019-05-30T15:24:14.355Z,19.69
2019-05-30T15:26:41.201Z,19.77
2019-05-30T15:29:08.168Z,19.47
2019-05-30T15:31:34.994Z,19.39
2019-05-30T15:34:01.673Z,19.57
2019-05-30T15:36:28.724Z,19.32
2019-05-30T15:38:55.291Z,19.41
2019-05-30T15:41:22.080Z,19.50
2019-05-30T15:43:48.872Z,19.35
2019-05-30T15:46:15.917Z,19.69
2019-05-30T15:48:42.822Z,19.51
2019-05-30T15:51:10.429Z,19.46
2019-05-30T15:53:38.239Z,19.26
2019-05-30T15:56:05.023Z,19.46
2019-05-30T15:58:31.733Z,19.35
2019-05-30T16:00:58.503Z,19.30
2019-05-30T16:03:25.101Z,19.35
2019-05-30T16:05:53.076Z,19.22
2019-05-30T16:08:20.960Z,19.19
2019-05-30T16:10:48.114Z,19.30
2019-05-30T16:13:15.318Z,19.26
2019-05-30T16:15:44.503Z,19.24
2019-05-30T16:18:11.604Z,19.33
2019-05-30T16:20:38.488Z,19.81
2019-05-30T16:23:05.353Z,19.58
2019-05-30T16:25:32.125Z,19.38
2019-05-30T16:27:58.921Z,19.31
2019-05-30T16:30:27.153Z,19.46
2019-05-30T16:32:54.101Z,19.39
2019-05-30T16:35:22.158Z,19.64
2019-05-30T16:37:48.908Z,19.44
2019-05-30T16:40:16.429Z,19.20
2019-05-30T16:42:43.752Z,19.25
2019-05-30T16:45:18.710Z,19.24
2019-05-30T16:47:42.812Z,19.08
2019-05-30T16:50:10.526Z,19.14
2019-05-30T16:52:37.354Z,19.04
2019-05-30T16:55:05.477Z,19.08
2019-05-30T16:57:32.268Z,19.23
2019-05-30T16:59:59.091Z,19.34
2019-05-30T17:02:26.953Z,19.11
2019-05-30T17:04:53.883Z,19.21
2019-05-30T17:07:21.527Z,19.23
2019-05-30T17:09:50.616Z,19.09
2019-05-30T17:12:17.524Z,19.09
2019-05-30T17:14:44.183Z,19.31
2019-05-30T17:17:11.277Z,19.30
2019-05-30T17:19:39.440Z,19.20
2019-05-30T17:22:06.513Z,19.11
2019-05-30T17:24:33.510Z,18.98
2019-05-30T17:27:00.230Z,18.93
2019-05-30T17:29:27.719Z,18.93
2019-05-30T17:31:54.607Z,18.85
2019-05-30T17:34:21.841Z,18.75
2019-05-30T17:36:49.224Z,18.69
2019-05-30T17:39:18.812Z,18.82
2019-05-30T17:41:46.705Z,18.83
2019-05-30T17:44:13.496Z,18.80
2019-05-30T17:46:40.298Z,18.69
2019-05-30T17:49:07.306Z,18.68
2019-05-30T17:51:34.437Z,18.54
2019-05-30T17:54:01.324Z,18.59
2019-05-30T17:56:28.277Z,18.58
2019-05-30T17:58:55.117Z,18.62
2019-05-30T18:01:22.240Z,18.60
2019-05-30T18:03:49.871Z,18.58
2019-05-30T18:06:16.677Z,18.73
2019-05-30T18:08:43.369Z,18.75
2019-05-30T18:11:10.195Z,18.63
2019-05-30T18:13:36.988Z,18.69
2019-05-30T18:16:03.800Z,18.80
2019-05-30T18:18:31.385Z,18.76
2019-05-30T18:20:58.689Z,18.70
2019-05-30T18:23:26.050Z,18.72
2019-05-30T18:25:54.583Z,18.66
2019-05-30T18:28:23.622Z,18.69
2019-05-30T18:30:50.560Z,18.56
2019-05-30T18:33:17.269Z,18.49
2019-05-30T18:35:44.431Z,18.59
2019-05-30T18:38:11.229Z,18.65
2019-05-30T18:40:38.000Z,18.53
2019-05-30T18:43:04.801Z,18.53
2019-05-30T18:45:36.790Z,18.34
2019-05-30T18:48:03.594Z,18.39
2019-05-30T18:50:31.624Z,18.36
2019-05-30T18:52:58.505Z,18.32
2019-05-30T18:55:28.554Z,18.24
2019-05-30T18:57:55.357Z,18.20
2019-05-30T19:00:22.141Z,18.16
2019-05-30T19:02:48.810Z,18.13
2019-05-30T19:05:16.510Z,18.12
2019-05-30T19:07:43.210Z,18.10
2019-05-30T19:10:10.005Z,18.15
2019-05-30T19:12:36.783Z,18.13
2019-05-30T19:15:27.184Z,18.14
2019-05-30T19:17:53.579Z,18.20
2019-05-30T19:20:22.745Z,18.31
2019-05-30T19:22:49.515Z,18.32
2019-05-30T19:25:16.333Z,18.29
2019-05-30T19:27:43.148Z,18.18
2019-05-30T19:30:11.409Z,18.05
2019-05-30T19:32:38.495Z,17.85
2019-05-30T19:35:07.483Z,17.70
2019-05-30T19:37:35.428Z,17.62
2019-05-30T19:40:02.351Z,17.50
2019-05-30T19:42:29.333Z,17.44
2019-05-30T19:45:00.405Z,17.40
2019-05-30T19:47:28.560Z,17.32
2019-05-30T19:49:55.911Z,17.27
2019-05-30T19:52:22.699Z,17.18
2019-05-30T19:54:49.487Z,17.18
2019-05-30T19:57:16.194Z,17.09
2019-05-30T19:59:43.035Z,17.08
2019-05-30T20:02:09.811Z,17.05
2019-05-30T20:04:36.682Z,16.89
2019-05-30T20:07:03.457Z,16.63
2019-05-30T20:09:30.488Z,16.46
2019-05-30T20:12:03.849Z,16.47
2019-05-30T20:14:26.042Z,16.52
2019-05-30T20:16:52.818Z,16.35
2019-05-30T20:19:19.619Z,16.33
2019-05-30T20:21:46.397Z,16.19
2019-05-30T20:24:13.191Z,16.01
2019-05-30T20:26:40.668Z,15.97
2019-05-30T20:29:07.519Z,15.87
2019-05-30T20:31:35.583Z,15.71
2019-05-30T20:34:02.433Z,15.64
2019-05-30T20:36:30.406Z,15.55
2019-05-30T20:38:57.204Z,15.45
2019-05-30T20:41:23.873Z,15.35
2019-05-30T20:43:50.659Z,15.26
2019-05-30T20:46:23.127Z,15.28
2019-05-30T20:48:46.015Z,15.43
2019-05-30T20:51:21.108Z,15.35
2019-05-30T20:53:41.654Z,15.27
2019-05-30T20:56:08.432Z,15.32
2019-05-30T20:58:35.533Z,15.21
2019-05-30T21:01:02.642Z,15.13
2019-05-30T21:03:29.438Z,15.05
2019-05-30T21:05:56.891Z,15.05
2019-05-30T21:08:23.661Z,15.11
2019-05-30T21:11:12.269Z,15.30
2019-05-30T21:13:44.288Z,15.25
2019-05-30T21:16:15.971Z,15.29
2019-05-30T21:18:44.389Z,15.29
2019-05-30T21:21:11.337Z,15.30
2019-05-30T21:23:38.309Z,15.32
2019-05-30T21:26:05.180Z,15.46
2019-05-30T21:28:31.954Z,15.43
2019-05-30T21:30:58.543Z,15.49
2019-05-30T21:33:25.334Z,15.67
2019-05-30T21:35:52.021Z,15.74
2019-05-30T21:38:18.841Z,15.74
2019-05-30T21:40:46.577Z,15.81
2019-05-30T21:43:13.299Z,15.91
2019-05-30T21:45:40.437Z,15.83
2019-05-30T21:48:07.170Z,15.99
2019-05-30T21:50:34.240Z,15.87
2019-05-30T21:53:01.338Z,15.97
2019-05-30T21:55:30.264Z,15.94
2019-05-30T21:57:57.058Z,15.85
2019-05-30T22:00:51.056Z,15.83
2019-05-30T22:03:17.906Z,15.76
2019-05-30T22:05:45.857Z,15.82
2019-05-30T22:08:13.562Z,15.79
2019-05-30T22:10:41.272Z,15.82
2019-05-30T22:13:09.755Z,15.94
2019-05-30T22:15:36.686Z,16.08
2019-05-30T22:21:46.016Z,16.08
2019-05-30T22:24:12.982Z,16.08
2019-05-30T22:26:39.787Z,16.16
2019-05-30T22:29:06.592Z,16.12
2019-05-30T22:31:33.395Z,16.28
2019-05-30T22:34:00.164Z,16.20
2019-05-30T22:36:26.957Z,16.22
2019-05-30T22:38:53.719Z,16.30
2019-05-30T22:41:20.507Z,16.44
2019-05-30T22:43:48.244Z,16.43
2019-05-30T22:46:15.074Z,16.35
2019-05-30T22:48:41.967Z,16.35
2019-05-30T22:51:08.748Z,16.39
2019-05-30T22:53:35.439Z,16.70
2019-05-30T22:56:02.109Z,16.56
2019-05-30T22:58:29.077Z,16.53
2019-05-30T23:00:56.200Z,16.46
2019-05-30T23:03:23.084Z,16.68
2019-05-30T23:05:51.118Z,16.58
2019-05-30T23:08:18.588Z,16.57
2019-05-30T23:10:45.623Z,16.47
2019-05-30T23:13:13.763Z,16.29
2019-05-30T23:15:40.635Z,16.23
2019-05-30T23:18:07.426Z,16.33
2019-05-30T23:20:34.203Z,16.25
2019-05-30T23:23:00.809Z,16.16
2019-05-30T23:25:27.606Z,16.34
2019-05-30T23:27:54.325Z,16.31
2019-05-30T23:30:21.802Z,16.35
2019-05-30T23:32:48.498Z,16.49
2019-05-30T23:35:15.371Z,16.57
2019-05-30T23:37:42.152Z,16.44
2019-05-30T23:40:09.323Z,16.46
2019-05-30T23:42:36.052Z,16.29
2019-05-30T23:45:02.950Z,16.19
2019-05-30T23:47:29.736Z,16.13
2019-05-30T23:49:56.515Z,15.95
2019-05-30T23:52:23.210Z,15.79
2019-05-30T23:54:50.073Z,15.85
2019-05-30T23:57:16.872Z,15.75
2019-05-30T23:59:43.645Z,15.53
